sensor_id;sensor_type;location;lat;lon;timestamp;pressure;altitude;pressure_sealevel;temperature;humidity
13033;BME280;6583;42.632;23.298;2023-01-29T00:00:31;71837.69;;;-146.40;82.10
13033;BME280;6583;42.632;23.298;2023-01-29T00:02:58;71833.66;;;-146.40;81.37
13033;BME280;6583;42.632;23.298;2023-01-29T00:05:24;71853.88;;;-146.40;81.23
13033;BME280;6583;42.632;23.298;2023-01-29T00:07:52;71843.75;;;-146.40;82.07
13033;BME280;6583;42.632;23.298;2023-01-29T00:10:19;71843.75;;;-146.40;81.54
13033;BME280;6583;42.632;23.298;2023-01-29T00:12:46;71845.78;;;-146.40;81.10
13033;BME280;6583;42.632;23.298;2023-01-29T00:15:12;71847.81;;;-146.40;81.16
13033;BME280;6583;42.632;23.298;2023-01-29T00:17:39;71845.78;;;-146.40;80.87
13033;BME280;6583;42.632;23.298;2023-01-29T00:20:06;71857.94;;;-146.40;81.28
13033;BME280;6583;42.632;23.298;2023-01-29T00:22:33;71849.84;;;-146.40;81.60
13033;BME280;6583;42.632;23.298;2023-01-29T00:25:04;71855.91;;;-146.40;81.60
13033;BME280;6583;42.632;23.298;2023-01-29T00:27:31;71851.84;;;-146.40;80.94
13033;BME280;6583;42.632;23.298;2023-01-29T00:29:58;71851.84;;;-146.40;80.86
13033;BME280;6583;42.632;23.298;2023-01-29T00:32:37;71864.00;;;-146.40;80.92
13033;BME280;6583;42.632;23.298;2023-01-29T00:35:05;71849.84;;;-146.40;80.43
13033;BME280;6583;42.632;23.298;2023-01-29T00:37:32;71847.81;;;-146.40;80.75
13033;BME280;6583;42.632;23.298;2023-01-29T00:39:59;71857.94;;;-146.40;80.48
13033;BME280;6583;42.632;23.298;2023-01-29T00:42:27;71849.84;;;-146.40;81.22
13033;BME280;6583;42.632;23.298;2023-01-29T00:45:11;71855.91;;;-146.40;81.06
13033;BME280;6583;42.632;23.298;2023-01-29T00:47:38;71845.78;;;-146.40;81.15
13033;BME280;6583;42.632;23.298;2023-01-29T00:50:07;71841.75;;;-146.40;81.61
13033;BME280;6583;42.632;23.298;2023-01-29T00:52:34;71839.72;;;-146.40;80.78
13033;BME280;6583;42.632;23.298;2023-01-29T00:55:03;71857.94;;;-146.40;81.76
13033;BME280;6583;42.632;23.298;2023-01-29T00:57:33;71849.84;;;-146.40;81.83
13033;BME280;6583;42.632;23.298;2023-01-29T01:00:01;71849.84;;;-146.40;82.02
13033;BME280;6583;42.632;23.298;2023-01-29T01:02:28;71843.75;;;-146.40;82.61
13033;BME280;6583;42.632;23.298;2023-01-29T01:05:14;71870.06;;;-146.40;82.57
13033;BME280;6583;42.632;23.298;2023-01-29T01:07:43;71890.31;;;-146.40;83.40
13033;BME280;6583;42.632;23.298;2023-01-29T01:10:12;71886.28;;;-146.40;84.22
13033;BME280;6583;42.632;23.298;2023-01-29T01:12:53;71894.38;;;-146.40;85.04
13033;BME280;6583;42.632;23.298;2023-01-29T01:15:21;71898.41;;;-146.40;85.31
13033;BME280;6583;42.632;23.298;2023-01-29T01:17:51;71890.31;;;-146.40;85.67
13033;BME280;6583;42.632;23.298;2023-01-29T01:20:18;71884.25;;;-146.40;85.79
13033;BME280;6583;42.632;23.298;2023-01-29T01:22:44;71886.28;;;-146.40;85.12
13033;BME280;6583;42.632;23.298;2023-01-29T01:25:11;71886.28;;;-146.40;84.65
13033;BME280;6583;42.632;23.298;2023-01-29T01:27:38;71908.53;;;-146.40;84.79
13033;BME280;6583;42.632;23.298;2023-01-29T01:30:09;71902.47;;;-146.40;85.07
13033;BME280;6583;42.632;23.298;2023-01-29T01:32:36;71902.47;;;-146.40;85.21
13033;BME280;6583;42.632;23.298;2023-01-29T01:35:04;71902.47;;;-146.40;85.65
13033;BME280;6583;42.632;23.298;2023-01-29T01:37:30;71894.38;;;-146.40;86.48
13033;BME280;6583;42.632;23.298;2023-01-29T01:39:57;71902.47;;;-146.40;85.95
13033;BME280;6583;42.632;23.298;2023-01-29T01:42:27;71894.38;;;-146.40;85.98
13033;BME280;6583;42.632;23.298;2023-01-29T01:44:57;71898.41;;;-146.40;86.07
13033;BME280;6583;42.632;23.298;2023-01-29T01:47:34;71894.38;;;-146.40;85.91
13033;BME280;6583;42.632;23.298;2023-01-29T01:50:07;71898.41;;;-146.40;85.99
13033;BME280;6583;42.632;23.298;2023-01-29T01:52:36;71906.50;;;-146.40;85.28
13033;BME280;6583;42.632;23.298;2023-01-29T01:55:06;71902.47;;;-146.40;85.35
13033;BME280;6583;42.632;23.298;2023-01-29T01:57:35;71912.56;;;-146.40;85.35
13033;BME280;6583;42.632;23.298;2023-01-29T02:00:05;71910.56;;;-146.40;85.59
13033;BME280;6583;42.632;23.298;2023-01-29T02:02:38;71910.56;;;-146.40;85.58
13033;BME280;6583;42.632;23.298;2023-01-29T02:05:25;71918.66;;;-146.40;85.66
13033;BME280;6583;42.632;23.298;2023-01-29T02:08:11;71910.56;;;-146.40;85.51
13033;BME280;6583;42.632;23.298;2023-01-29T02:10:57;71916.63;;;-146.40;85.58
13033;BME280;6583;42.632;23.298;2023-01-29T02:13:23;71922.69;;;-146.40;85.92
13033;BME280;6583;42.632;23.298;2023-01-29T02:15:50;71914.59;;;-146.40;85.85
13033;BME280;6583;42.632;23.298;2023-01-29T02:18:19;71914.59;;;-146.40;85.68
13033;BME280;6583;42.632;23.298;2023-01-29T02:20:51;71918.66;;;-146.40;85.83
13033;BME280;6583;42.632;23.298;2023-01-29T02:23:59;71920.69;;;-146.40;85.47
13033;BME280;6583;42.632;23.298;2023-01-29T02:26:42;71924.72;;;-146.40;86.50
13033;BME280;6583;42.632;23.298;2023-01-29T02:29:18;71922.69;;;-146.40;86.68
13033;BME280;6583;42.632;23.298;2023-01-29T02:31:55;71906.50;;;-146.40;86.57
13033;BME280;6583;42.632;23.298;2023-01-29T02:34:35;71930.78;;;-146.40;86.44
13033;BME280;6583;42.632;23.298;2023-01-29T02:37:24;71938.88;;;-146.40;86.33
13033;BME280;6583;42.632;23.298;2023-01-29T02:39:58;71955.09;;;-146.40;86.48
13033;BME280;6583;42.632;23.298;2023-01-29T02:42:33;71930.78;;;-146.40;86.86
13033;BME280;6583;42.632;23.298;2023-01-29T02:45:09;71940.91;;;-146.40;87.19
13033;BME280;6583;42.632;23.298;2023-01-29T02:47:41;71940.91;;;-146.40;86.77
13033;BME280;6583;42.632;23.298;2023-01-29T02:50:14;71951.03;;;-146.40;86.42
13033;BME280;6583;42.632;23.298;2023-01-29T02:52:47;71938.88;;;-146.40;86.93
13033;BME280;6583;42.632;23.298;2023-01-29T02:55:21;71942.94;;;-146.40;87.29
13033;BME280;6583;42.632;23.298;2023-01-29T02:57:51;71938.88;;;-146.40;87.68
13033;BME280;6583;42.632;23.298;2023-01-29T03:00:24;71936.88;;;-146.40;88.15
13033;BME280;6583;42.632;23.298;2023-01-29T03:02:56;71928.78;;;-146.40;87.43
13033;BME280;6583;42.632;23.298;2023-01-29T03:05:28;71926.75;;;-146.40;87.05
13033;BME280;6583;42.632;23.298;2023-01-29T03:08:00;71924.72;;;-146.40;86.92
13033;BME280;6583;42.632;23.298;2023-01-29T03:10:34;71924.72;;;-146.40;86.99
13033;BME280;6583;42.632;23.298;2023-01-29T03:13:06;71916.63;;;-146.40;86.76
13033;BME280;6583;42.632;23.298;2023-01-29T03:15:39;71918.66;;;-146.40;85.86
13033;BME280;6583;42.632;23.298;2023-01-29T03:18:10;71918.66;;;-146.40;85.52
13033;BME280;6583;42.632;23.298;2023-01-29T03:20:41;71910.56;;;-146.40;85.21
13033;BME280;6583;42.632;23.298;2023-01-29T03:23:16;71930.78;;;-146.40;83.97
13033;BME280;6583;42.632;23.298;2023-01-29T03:25:53;71926.75;;;-146.40;83.70
13033;BME280;6583;42.632;23.298;2023-01-29T03:28:42;71940.91;;;-146.40;83.26
13033;BME280;6583;42.632;23.298;2023-01-29T03:31:29;71942.94;;;-146.40;82.03
13033;BME280;6583;42.632;23.298;2023-01-29T03:34:16;71942.94;;;-146.40;82.78
13033;BME280;6583;42.632;23.298;2023-01-29T03:36:51;71944.97;;;-146.40;82.96
13033;BME280;6583;42.632;23.298;2023-01-29T03:39:20;71951.03;;;-146.40;82.51
13033;BME280;6583;42.632;23.298;2023-01-29T03:41:53;71953.06;;;-146.40;82.45
13033;BME280;6583;42.632;23.298;2023-01-29T03:44:27;71957.09;;;-146.40;83.34
13033;BME280;6583;42.632;23.298;2023-01-29T03:47:05;71951.03;;;-146.40;83.86
13033;BME280;6583;42.632;23.298;2023-01-29T03:49:45;71951.03;;;-146.40;83.14
13033;BME280;6583;42.632;23.298;2023-01-29T03:52:18;71953.06;;;-146.40;83.74
13033;BME280;6583;42.632;23.298;2023-01-29T03:54:53;71955.09;;;-146.40;84.11
13033;BME280;6583;42.632;23.298;2023-01-29T03:57:29;71949.00;;;-146.40;84.58
13033;BME280;6583;42.632;23.298;2023-01-29T04:00:02;71947.00;;;-146.40;85.12
13033;BME280;6583;42.632;23.298;2023-01-29T04:02:37;71947.00;;;-146.40;85.26
13033;BME280;6583;42.632;23.298;2023-01-29T04:05:08;71936.88;;;-146.40;85.38
13033;BME280;6583;42.632;23.298;2023-01-29T04:07:40;71936.88;;;-146.40;85.00
13033;BME280;6583;42.632;23.298;2023-01-29T04:10:10;71940.91;;;-146.40;84.45
13033;BME280;6583;42.632;23.298;2023-01-29T04:12:43;71957.09;;;-146.40;83.80
13033;BME280;6583;42.632;23.298;2023-01-29T04:15:14;71957.09;;;-146.40;83.68
13033;BME280;6583;42.632;23.298;2023-01-29T04:17:47;71957.09;;;-146.40;82.87
13033;BME280;6583;42.632;23.298;2023-01-29T04:20:15;71963.19;;;-146.40;82.80
13033;BME280;6583;42.632;23.298;2023-01-29T04:22:45;71971.28;;;-146.40;82.84
13033;BME280;6583;42.632;23.298;2023-01-29T04:25:15;71965.22;;;-146.40;83.64
13033;BME280;6583;42.632;23.298;2023-01-29T04:27:45;71967.22;;;-146.40;84.21
13033;BME280;6583;42.632;23.298;2023-01-29T04:30:22;71971.28;;;-146.40;83.92
13033;BME280;6583;42.632;23.298;2023-01-29T04:33:03;71965.22;;;-146.40;84.22
13033;BME280;6583;42.632;23.298;2023-01-29T04:35:43;71957.09;;;-146.40;84.22
13033;BME280;6583;42.632;23.298;2023-01-29T04:38:19;71959.13;;;-146.40;84.01
13033;BME280;6583;42.632;23.298;2023-01-29T04:40:55;71961.16;;;-146.40;83.73
13033;BME280;6583;42.632;23.298;2023-01-29T04:43:27;71963.19;;;-146.40;83.34
13033;BME280;6583;42.632;23.298;2023-01-29T04:46:08;71977.34;;;-146.40;83.44
13033;BME280;6583;42.632;23.298;2023-01-29T04:48:45;71971.28;;;-146.40;83.29
13033;BME280;6583;42.632;23.298;2023-01-29T04:51:21;71959.13;;;-146.40;83.79
13033;BME280;6583;42.632;23.298;2023-01-29T04:53:57;71959.13;;;-146.40;84.41
13033;BME280;6583;42.632;23.298;2023-01-29T04:56:32;71983.41;;;-146.40;82.64
13033;BME280;6583;42.632;23.298;2023-01-29T04:59:04;71983.41;;;-146.40;82.56
13033;BME280;6583;42.632;23.298;2023-01-29T05:01:33;71981.41;;;-146.40;83.62
13033;BME280;6583;42.632;23.298;2023-01-29T05:04:05;71969.25;;;-146.40;83.73
13033;BME280;6583;42.632;23.298;2023-01-29T05:06:34;71961.16;;;-146.40;83.34
13033;BME280;6583;42.632;23.298;2023-01-29T05:09:03;71967.22;;;-146.40;83.05
13033;BME280;6583;42.632;23.298;2023-01-29T05:11:30;71967.22;;;-146.40;82.85
13033;BME280;6583;42.632;23.298;2023-01-29T05:13:58;71969.25;;;-146.40;83.27
13033;BME280;6583;42.632;23.298;2023-01-29T05:16:27;71969.25;;;-146.40;83.60
13033;BME280;6583;42.632;23.298;2023-01-29T05:18:55;71979.38;;;-146.40;83.22
13033;BME280;6583;42.632;23.298;2023-01-29T05:21:23;71967.22;;;-146.40;83.26
13033;BME280;6583;42.632;23.298;2023-01-29T05:24:08;71975.31;;;-146.40;84.02
13033;BME280;6583;42.632;23.298;2023-01-29T05:26:35;71967.22;;;-146.40;84.40
13033;BME280;6583;42.632;23.298;2023-01-29T05:29:19;71977.34;;;-146.40;83.80
13033;BME280;6583;42.632;23.298;2023-01-29T05:31:46;71965.22;;;-146.40;82.95
13033;BME280;6583;42.632;23.298;2023-01-29T05:34:13;71975.31;;;-146.40;83.24
13033;BME280;6583;42.632;23.298;2023-01-29T05:36:41;71981.41;;;-146.40;82.92
13033;BME280;6583;42.632;23.298;2023-01-29T05:39:07;71979.38;;;-146.40;82.92
13033;BME280;6583;42.632;23.298;2023-01-29T05:41:34;71971.28;;;-146.40;83.58
13033;BME280;6583;42.632;23.298;2023-01-29T05:44:01;71979.38;;;-146.40;83.36
13033;BME280;6583;42.632;23.298;2023-01-29T05:46:27;71975.31;;;-146.40;83.46
13033;BME280;6583;42.632;23.298;2023-01-29T05:48:54;71987.47;;;-146.40;83.74
13033;BME280;6583;42.632;23.298;2023-01-29T05:51:21;71979.38;;;-146.40;84.54
13033;BME280;6583;42.632;23.298;2023-01-29T05:53:49;71981.41;;;-146.40;84.14
13033;BME280;6583;42.632;23.298;2023-01-29T05:56:15;71975.31;;;-146.40;84.04
13033;BME280;6583;42.632;23.298;2023-01-29T05:58:42;71983.41;;;-146.40;84.57
13033;BME280;6583;42.632;23.298;2023-01-29T06:01:10;71983.41;;;-146.40;84.22
13033;BME280;6583;42.632;23.298;2023-01-29T06:03:37;71979.38;;;-146.40;84.27
13033;BME280;6583;42.632;23.298;2023-01-29T06:06:04;71979.38;;;-146.40;84.77
13033;BME280;6583;42.632;23.298;2023-01-29T06:08:30;71979.38;;;-146.40;84.75
13033;BME280;6583;42.632;23.298;2023-01-29T06:10:58;71985.44;;;-146.40;85.01
13033;BME280;6583;42.632;23.298;2023-01-29T06:13:25;71991.53;;;-146.40;85.05
13033;BME280;6583;42.632;23.298;2023-01-29T06:15:52;71991.53;;;-146.40;84.92
13033;BME280;6583;42.632;23.298;2023-01-29T06:18:18;71995.56;;;-146.40;85.31
13033;BME280;6583;42.632;23.298;2023-01-29T06:20:45;71995.56;;;-146.40;85.84
13033;BME280;6583;42.632;23.298;2023-01-29T06:23:11;71999.63;;;-146.40;85.28
13033;BME280;6583;42.632;23.298;2023-01-29T06:25:38;72009.72;;;-146.40;85.16
13033;BME280;6583;42.632;23.298;2023-01-29T06:28:06;72003.66;;;-146.40;85.58
13033;BME280;6583;42.632;23.298;2023-01-29T06:30:33;71999.63;;;-146.40;85.79
13033;BME280;6583;42.632;23.298;2023-01-29T06:33:00;72003.66;;;-146.40;86.31
13033;BME280;6583;42.632;23.298;2023-01-29T06:35:27;72009.72;;;-146.40;86.16
13033;BME280;6583;42.632;23.298;2023-01-29T06:37:55;72019.84;;;-146.40;85.97
13033;BME280;6583;42.632;23.298;2023-01-29T06:40:22;72019.84;;;-146.40;85.76
13033;BME280;6583;42.632;23.298;2023-01-29T06:42:48;72007.72;;;-146.40;86.01
13033;BME280;6583;42.632;23.298;2023-01-29T06:45:16;72007.72;;;-146.40;85.86
13033;BME280;6583;42.632;23.298;2023-01-29T06:47:43;72009.72;;;-146.40;86.03
13033;BME280;6583;42.632;23.298;2023-01-29T06:50:10;71995.56;;;-146.40;85.64
13033;BME280;6583;42.632;23.298;2023-01-29T06:52:37;71989.50;;;-146.40;85.62
13033;BME280;6583;42.632;23.298;2023-01-29T06:55:05;71989.50;;;-146.40;85.88
13033;BME280;6583;42.632;23.298;2023-01-29T06:57:31;71991.53;;;-146.40;84.92
13033;BME280;6583;42.632;23.298;2023-01-29T06:59:58;71977.34;;;-146.40;85.13
13033;BME280;6583;42.632;23.298;2023-01-29T07:02:26;71975.31;;;-146.40;84.39
13033;BME280;6583;42.632;23.298;2023-01-29T07:04:53;71977.34;;;-146.40;83.98
13033;BME280;6583;42.632;23.298;2023-01-29T07:07:19;71983.41;;;-146.40;83.80
13033;BME280;6583;42.632;23.298;2023-01-29T07:09:46;71987.47;;;-146.40;82.77
13033;BME280;6583;42.632;23.298;2023-01-29T07:12:12;71983.41;;;-146.40;83.52
13033;BME280;6583;42.632;23.298;2023-01-29T07:14:39;71999.63;;;-146.40;83.77
13033;BME280;6583;42.632;23.298;2023-01-29T07:17:06;71995.56;;;-146.40;84.48
13033;BME280;6583;42.632;23.298;2023-01-29T07:19:34;72003.66;;;-146.40;84.00
13033;BME280;6583;42.632;23.298;2023-01-29T07:22:00;72005.69;;;-146.40;84.68
13033;BME280;6583;42.632;23.298;2023-01-29T07:24:28;71999.63;;;-146.40;84.66
13033;BME280;6583;42.632;23.298;2023-01-29T07:26:54;71991.53;;;-146.40;85.13
13033;BME280;6583;42.632;23.298;2023-01-29T07:29:21;71987.47;;;-146.40;85.22
13033;BME280;6583;42.632;23.298;2023-01-29T07:31:48;71991.53;;;-146.40;84.36
13033;BME280;6583;42.632;23.298;2023-01-29T07:34:14;71999.63;;;-146.40;83.79
13033;BME280;6583;42.632;23.298;2023-01-29T07:36:42;71985.44;;;-146.40;84.01
13033;BME280;6583;42.632;23.298;2023-01-29T07:39:09;71983.41;;;-146.40;83.79
13033;BME280;6583;42.632;23.298;2023-01-29T07:41:36;71991.53;;;-146.40;83.62
13033;BME280;6583;42.632;23.298;2023-01-29T07:44:02;71981.41;;;-146.40;83.97
13033;BME280;6583;42.632;23.298;2023-01-29T07:46:29;71967.22;;;-146.40;84.02
13033;BME280;6583;42.632;23.298;2023-01-29T07:48:57;71959.13;;;-146.40;83.80
13033;BME280;6583;42.632;23.298;2023-01-29T07:51:23;71955.09;;;-146.40;83.38
13033;BME280;6583;42.632;23.298;2023-01-29T07:53:51;71969.25;;;-146.40;82.45
13033;BME280;6583;42.632;23.298;2023-01-29T07:56:18;71969.25;;;-146.40;82.22
13033;BME280;6583;42.632;23.298;2023-01-29T07:58:45;71967.22;;;-146.40;82.60
13033;BME280;6583;42.632;23.298;2023-01-29T08:01:11;71949.00;;;-146.40;83.09
13033;BME280;6583;42.632;23.298;2023-01-29T08:03:38;71951.03;;;-146.40;82.23
13033;BME280;6583;42.632;23.298;2023-01-29T08:06:05;71934.84;;;-146.40;82.84
13033;BME280;6583;42.632;23.298;2023-01-29T08:08:32;71951.03;;;-146.40;82.30
13033;BME280;6583;42.632;23.298;2023-01-29T08:11:01;71930.78;;;-146.40;82.43
13033;BME280;6583;42.632;23.298;2023-01-29T08:13:28;71942.94;;;-146.40;81.62
13033;BME280;6583;42.632;23.298;2023-01-29T08:15:58;71947.00;;;-146.40;82.05
13033;BME280;6583;42.632;23.298;2023-01-29T08:18:25;71957.09;;;-146.40;82.22
13033;BME280;6583;42.632;23.298;2023-01-29T08:20:51;71961.16;;;-146.40;82.42
13033;BME280;6583;42.632;23.298;2023-01-29T08:23:18;71979.38;;;-146.40;82.94
13033;BME280;6583;42.632;23.298;2023-01-29T08:25:45;71983.41;;;-146.40;83.64
13033;BME280;6583;42.632;23.298;2023-01-29T08:28:13;71979.38;;;-146.40;84.65
13033;BME280;6583;42.632;23.298;2023-01-29T08:30:40;72003.66;;;-146.40;84.68
13033;BME280;6583;42.632;23.298;2023-01-29T08:33:08;72003.66;;;-146.40;85.12
13033;BME280;6583;42.632;23.298;2023-01-29T08:35:35;72013.78;;;-146.40;84.69
13033;BME280;6583;42.632;23.298;2023-01-29T08:38:03;72015.81;;;-146.40;84.63
13033;BME280;6583;42.632;23.298;2023-01-29T08:40:32;72007.72;;;-146.40;84.76
13033;BME280;6583;42.632;23.298;2023-01-29T08:43:00;72001.63;;;-146.40;84.62
13033;BME280;6583;42.632;23.298;2023-01-29T08:45:28;72015.81;;;-146.40;84.29
13033;BME280;6583;42.632;23.298;2023-01-29T08:47:55;72007.72;;;-146.40;84.33
13033;BME280;6583;42.632;23.298;2023-01-29T08:50:21;72019.84;;;-146.40;84.17
13033;BME280;6583;42.632;23.298;2023-01-29T08:52:48;72032.00;;;-146.40;84.36
13033;BME280;6583;42.632;23.298;2023-01-29T08:55:15;72029.97;;;-146.40;84.24
13033;BME280;6583;42.632;23.298;2023-01-29T08:57:42;72025.94;;;-146.40;84.21
13033;BME280;6583;42.632;23.298;2023-01-29T09:00:09;72015.81;;;-146.40;84.62
13033;BME280;6583;42.632;23.298;2023-01-29T09:02:38;72021.88;;;-146.40;84.38
13033;BME280;6583;42.632;23.298;2023-01-29T09:05:05;72015.81;;;-146.40;84.45
13033;BME280;6583;42.632;23.298;2023-01-29T09:07:33;72013.78;;;-146.40;83.95
13033;BME280;6583;42.632;23.298;2023-01-29T09:09:59;72015.81;;;-146.40;84.11
13033;BME280;6583;42.632;23.298;2023-01-29T09:12:26;72007.72;;;-146.40;84.38
13033;BME280;6583;42.632;23.298;2023-01-29T09:14:53;72011.75;;;-146.40;84.26
13033;BME280;6583;42.632;23.298;2023-01-29T09:17:19;71999.63;;;-146.40;84.00
13033;BME280;6583;42.632;23.298;2023-01-29T09:19:47;72017.84;;;-146.40;83.42
13033;BME280;6583;42.632;23.298;2023-01-29T09:22:16;72027.94;;;-146.40;83.79
13033;BME280;6583;42.632;23.298;2023-01-29T09:24:43;72027.94;;;-146.40;84.57
13033;BME280;6583;42.632;23.298;2023-01-29T09:27:09;72011.75;;;-146.40;85.28
13033;BME280;6583;42.632;23.298;2023-01-29T09:29:36;72003.66;;;-146.40;84.88
13033;BME280;6583;42.632;23.298;2023-01-29T09:32:03;71995.56;;;-146.40;84.69
13033;BME280;6583;42.632;23.298;2023-01-29T09:34:30;71997.59;;;-146.40;83.84
13033;BME280;6583;42.632;23.298;2023-01-29T09:36:58;71997.59;;;-146.40;84.01
13033;BME280;6583;42.632;23.298;2023-01-29T09:39:25;71987.47;;;-146.40;84.18
13033;BME280;6583;42.632;23.298;2023-01-29T09:41:55;71991.53;;;-146.40;84.04
13033;BME280;6583;42.632;23.298;2023-01-29T09:44:32;72003.66;;;-146.40;83.89
13033;BME280;6583;42.632;23.298;2023-01-29T09:47:05;72017.84;;;-146.40;83.94
13033;BME280;6583;42.632;23.298;2023-01-29T09:49:38;72011.75;;;-146.40;84.33
13033;BME280;6583;42.632;23.298;2023-01-29T09:52:13;71991.53;;;-146.40;84.93
13033;BME280;6583;42.632;23.298;2023-01-29T09:54:49;71989.50;;;-146.40;84.54
13033;BME280;6583;42.632;23.298;2023-01-29T09:57:24;71967.22;;;-146.40;83.97
13033;BME280;6583;42.632;23.298;2023-01-29T09:59:53;71975.31;;;-146.40;83.29
13033;BME280;6583;42.632;23.298;2023-01-29T10:05:31;71965.22;;;-146.40;83.17
13033;BME280;6583;42.632;23.298;2023-01-29T10:11:25;71942.94;;;-146.40;84.09
13033;BME280;6583;42.632;23.298;2023-01-29T10:14:02;71951.03;;;-146.40;83.23
13033;BME280;6583;42.632;23.298;2023-01-29T10:16:41;71971.28;;;-146.40;83.00
13033;BME280;6583;42.632;23.298;2023-01-29T10:19:34;71981.41;;;-146.40;84.29
13033;BME280;6583;42.632;23.298;2023-01-29T10:25:02;71967.22;;;-146.40;84.48
13033;BME280;6583;42.632;23.298;2023-01-29T10:27:32;71971.28;;;-146.40;84.78
13033;BME280;6583;42.632;23.298;2023-01-29T10:30:02;71999.63;;;-146.40;85.21
13033;BME280;6583;42.632;23.298;2023-01-29T10:32:30;71981.41;;;-146.40;86.24
13033;BME280;6583;42.632;23.298;2023-01-29T10:35:02;71997.59;;;-146.40;85.85
13033;BME280;6583;42.632;23.298;2023-01-29T10:37:35;72007.72;;;-146.40;85.81
13033;BME280;6583;42.632;23.298;2023-01-29T10:40:17;72001.63;;;-146.40;86.45
13033;BME280;6583;42.632;23.298;2023-01-29T10:42:51;72007.72;;;-146.40;86.67
13033;BME280;6583;42.632;23.298;2023-01-29T10:45:28;72027.94;;;-146.40;87.21
13033;BME280;6583;42.632;23.298;2023-01-29T10:50:51;72025.94;;;-146.40;88.14
13033;BME280;6583;42.632;23.298;2023-01-29T10:53:30;72019.84;;;-146.40;88.27
13033;BME280;6583;42.632;23.298;2023-01-29T10:56:10;72023.91;;;-146.40;88.27
13033;BME280;6583;42.632;23.298;2023-01-29T10:58:46;72032.00;;;-146.40;88.49
13033;BME280;6583;42.632;23.298;2023-01-29T11:01:15;72023.91;;;-146.40;88.91
13033;BME280;6583;42.632;23.298;2023-01-29T11:03:42;72013.78;;;-146.40;89.41
13033;BME280;6583;42.632;23.298;2023-01-29T11:06:13;72019.84;;;-146.40;89.36
13033;BME280;6583;42.632;23.298;2023-01-29T11:08:45;72007.72;;;-146.40;88.84
13033;BME280;6583;42.632;23.298;2023-01-29T11:11:15;72011.75;;;-146.40;88.99
13033;BME280;6583;42.632;23.298;2023-01-29T11:13:49;71997.59;;;-146.40;88.90
13033;BME280;6583;42.632;23.298;2023-01-29T11:16:18;71981.41;;;-146.40;89.02
13033;BME280;6583;42.632;23.298;2023-01-29T11:18:55;71979.38;;;-146.40;88.68
13033;BME280;6583;42.632;23.298;2023-01-29T11:21:23;71993.53;;;-146.40;87.68
13033;BME280;6583;42.632;23.298;2023-01-29T11:24:04;71979.38;;;-146.40;87.09
13033;BME280;6583;42.632;23.298;2023-01-29T11:26:33;71983.41;;;-146.40;86.83
13033;BME280;6583;42.632;23.298;2023-01-29T11:29:02;71969.25;;;-146.40;87.29
13033;BME280;6583;42.632;23.298;2023-01-29T11:31:35;71963.19;;;-146.40;86.88
13033;BME280;6583;42.632;23.298;2023-01-29T11:34:04;71953.06;;;-146.40;86.87
13033;BME280;6583;42.632;23.298;2023-01-29T11:36:34;71951.03;;;-146.40;86.82
13033;BME280;6583;42.632;23.298;2023-01-29T11:39:14;71942.94;;;-146.40;86.65
13033;BME280;6583;42.632;23.298;2023-01-29T11:41:46;71947.00;;;-146.40;86.38
13033;BME280;6583;42.632;23.298;2023-01-29T11:44:25;71928.78;;;-146.40;87.09
13033;BME280;6583;42.632;23.298;2023-01-29T11:46:52;71930.78;;;-146.40;86.73
13033;BME280;6583;42.632;23.298;2023-01-29T11:49:23;71902.47;;;-146.40;86.85
13033;BME280;6583;42.632;23.298;2023-01-29T11:51:54;71894.38;;;-146.40;86.43
13033;BME280;6583;42.632;23.298;2023-01-29T11:54:25;71874.13;;;-146.40;85.59
13033;BME280;6583;42.632;23.298;2023-01-29T11:56:54;71878.16;;;-146.40;84.75
13033;BME280;6583;42.632;23.298;2023-01-29T11:59:32;71880.19;;;-146.40;84.55
13033;BME280;6583;42.632;23.298;2023-01-29T12:02:05;71880.19;;;-146.40;84.29
13033;BME280;6583;42.632;23.298;2023-01-29T12:04:39;71866.03;;;-146.40;84.34
13033;BME280;6583;42.632;23.298;2023-01-29T12:07:11;71874.13;;;-146.40;83.96
13033;BME280;6583;42.632;23.298;2023-01-29T12:09:39;71866.03;;;-146.40;83.52
13033;BME280;6583;42.632;23.298;2023-01-29T12:12:17;71868.06;;;-146.40;83.25
13033;BME280;6583;42.632;23.298;2023-01-29T12:15:02;71851.84;;;-146.40;83.43
13033;BME280;6583;42.632;23.298;2023-01-29T12:17:30;71866.03;;;-146.40;82.92
13033;BME280;6583;42.632;23.298;2023-01-29T12:20:03;71870.06;;;-146.40;83.79
13033;BME280;6583;42.632;23.298;2023-01-29T12:22:39;71878.16;;;-146.40;84.12
13033;BME280;6583;42.632;23.298;2023-01-29T12:25:17;71890.31;;;-146.40;84.73
13033;BME280;6583;42.632;23.298;2023-01-29T12:27:52;71904.47;;;-146.40;84.96
13033;BME280;6583;42.632;23.298;2023-01-29T12:30:26;71894.38;;;-146.40;85.01
13033;BME280;6583;42.632;23.298;2023-01-29T12:32:59;71880.19;;;-146.40;85.31
13033;BME280;6583;42.632;23.298;2023-01-29T12:35:30;71878.16;;;-146.40;85.12
13033;BME280;6583;42.632;23.298;2023-01-29T12:38:01;71880.19;;;-146.40;84.94
13033;BME280;6583;42.632;23.298;2023-01-29T12:40:32;71870.06;;;-146.40;84.65
13033;BME280;6583;42.632;23.298;2023-01-29T12:43:05;71898.41;;;-146.40;84.48
13033;BME280;6583;42.632;23.298;2023-01-29T12:45:38;71894.38;;;-146.40;85.03
13033;BME280;6583;42.632;23.298;2023-01-29T12:48:08;71880.19;;;-146.40;85.57
13033;BME280;6583;42.632;23.298;2023-01-29T12:50:37;71886.28;;;-146.40;85.86
13033;BME280;6583;42.632;23.298;2023-01-29T12:53:07;71882.22;;;-146.40;86.03
13033;BME280;6583;42.632;23.298;2023-01-29T12:55:41;71904.47;;;-146.40;85.67
13033;BME280;6583;42.632;23.298;2023-01-29T12:58:11;71934.84;;;-146.40;86.16
13033;BME280;6583;42.632;23.298;2023-01-29T13:00:42;71942.94;;;-146.40;86.94
13033;BME280;6583;42.632;23.298;2023-01-29T13:03:18;71934.84;;;-146.40;87.53
13033;BME280;6583;42.632;23.298;2023-01-29T13:05:49;71934.84;;;-146.40;87.70
13033;BME280;6583;42.632;23.298;2023-01-29T13:08:20;71940.91;;;-146.40;87.53
13033;BME280;6583;42.632;23.298;2023-01-29T13:10:49;71934.84;;;-146.40;87.64